Time;durP1;ratioP1;P1;durP2;ratioP2;P2;SDS_P1;SDS_P2;PMS_P1;PMS_P2;Temp;Humidity;BMP_temperature;BMP_pressure;BME280_temperature;BME280_humidity;BME280_pressure;Samples;Min_cycle;Max_cycle;Signal;HPM_P1;HPM_P2
2021/04/20 00:02:04;;;;;;;89.30;49.30;;;6.10;99.90;;;;;;5017633;28;20081;-91
2021/04/20 00:04:30;;;;;;;80.65;47.10;;;6.00;99.90;;;;;;5015014;28;20050;-91
2021/04/20 00:06:57;;;;;;;70.80;41.42;;;6.00;99.90;;;;;;4999081;28;20073;-88
2021/04/20 00:09:23;;;;;;;68.70;39.53;;;6.00;99.90;;;;;;5019323;28;20089;-90
2021/04/20 00:11:50;;;;;;;65.95;38.97;;;6.00;99.90;;;;;;5018839;28;20161;-91
2021/04/20 00:14:16;;;;;;;67.63;40.13;;;5.90;99.90;;;;;;5015690;28;20146;-89
2021/04/20 00:16:43;;;;;;;71.70;40.80;;;5.90;99.90;;;;;;5015427;28;20096;-90
2021/04/20 00:19:10;;;;;;;74.97;43.97;;;5.90;99.90;;;;;;4998375;28;20061;-90
2021/04/20 00:21:38;;;;;;;74.90;42.50;;;5.80;99.90;;;;;;5015982;28;20085;-90
2021/04/20 00:24:08;;;;;;;62.55;37.45;;;5.80;99.90;;;;;;5016601;28;20093;-90
2021/04/20 00:26:35;;;;;;;60.47;33.95;;;5.70;99.90;;;;;;5013671;28;20064;-90
2021/04/20 00:29:01;;;;;;;56.05;33.80;;;5.70;99.90;;;;;;5014121;28;20061;-91
2021/04/20 00:31:27;;;;;;;65.00;35.35;;;5.60;99.90;;;;;;5015260;28;20046;-91
2021/04/20 00:33:54;;;;;;;64.95;34.63;;;5.50;99.90;;;;;;5014536;28;20038;-91
2021/04/20 00:36:20;;;;;;;59.20;33.70;;;5.40;99.90;;;;;;5011855;28;20208;-91
2021/04/20 00:38:47;;;;;;;62.50;34.33;;;5.30;99.90;;;;;;5009883;28;20056;-90
2021/04/20 00:41:14;;;;;;;58.03;34.38;;;5.20;99.90;;;;;;5021625;28;20076;-91
2021/04/20 00:43:46;;;;;;;69.03;37.28;;;5.10;99.90;;;;;;5022040;28;20168;-89
2021/04/20 00:46:15;;;;;;;65.72;35.60;;;5.00;99.90;;;;;;5016591;28;20052;-90
2021/04/20 00:48:42;;;;;;;56.53;32.92;;;4.80;99.90;;;;;;5016321;28;20133;-90
2021/04/20 00:51:10;;;;;;;60.70;34.55;;;4.70;99.90;;;;;;5014177;28;20128;-90
2021/04/20 00:53:37;;;;;;;66.57;34.35;;;4.50;99.90;;;;;;5014407;28;20046;-89
2021/04/20 00:56:04;;;;;;;72.90;37.28;;;4.40;99.90;;;;;;5010164;28;20054;-90
2021/04/20 00:58:31;;;;;;;82.45;37.97;;;4.30;99.90;;;;;;5004509;28;20046;-90
2021/04/20 01:00:58;;;;;;;72.55;38.28;;;4.10;99.90;;;;;;5013431;28;20137;-90
2021/04/20 01:03:26;;;;;;;74.43;39.40;;;4.10;99.90;;;;;;5013345;28;20077;-90
2021/04/20 01:05:53;;;;;;;81.57;41.90;;;4.00;99.90;;;;;;5011333;28;20436;-91
2021/04/20 01:08:23;;;;;;;86.38;43.40;;;4.00;99.90;;;;;;5005252;28;20068;-90
2021/04/20 01:10:55;;;;;;;86.25;43.05;;;3.90;99.90;;;;;;5014205;28;20074;-90
2021/04/20 01:13:27;;;;;;;94.47;42.30;;;3.90;99.90;;;;;;4997910;28;20053;-92
2021/04/20 01:15:54;;;;;;;90.45;45.20;;;3.80;99.90;;;;;;5014179;28;20327;-89
2021/04/20 01:18:27;;;;;;;94.93;43.15;;;3.70;99.90;;;;;;5013799;28;20045;-90
2021/04/20 01:20:59;;;;;;;98.07;44.17;;;3.70;99.90;;;;;;5014010;28;20439;-89
2021/04/20 01:24:06;;;;;;;69.30;33.17;;;3.70;99.90;;;;;;5014774;28;20245;-91
2021/04/20 01:26:37;;;;;;;92.05;43.92;;;3.60;99.90;;;;;;5012315;28;20133;-92
2021/04/20 01:29:05;;;;;;;96.60;43.83;;;3.60;99.90;;;;;;5007197;28;20107;-92
2021/04/20 01:31:37;;;;;;;99.93;43.92;;;3.50;99.90;;;;;;5013809;28;20514;-91
2021/04/20 01:34:04;;;;;;;155.63;46.70;;;3.50;99.90;;;;;;5015041;28;20379;-92
2021/04/20 01:36:31;;;;;;;97.63;43.63;;;3.50;99.90;;;;;;5014849;28;20049;-92
2021/04/20 01:38:58;;;;;;;119.18;48.42;;;3.40;99.90;;;;;;5012130;28;20096;-91
2021/04/20 01:41:27;;;;;;;108.32;47.22;;;3.40;99.90;;;;;;5013820;28;20137;-91
2021/04/20 01:43:56;;;;;;;117.53;48.60;;;3.40;99.90;;;;;;5014865;28;20133;-89
2021/04/20 01:46:24;;;;;;;131.27;52.95;;;3.40;99.90;;;;;;5013039;28;20383;-92
2021/04/20 01:48:54;;;;;;;136.63;51.33;;;3.30;99.90;;;;;;5015025;28;20071;-90
2021/04/20 01:51:23;;;;;;;150.73;61.67;;;3.30;99.90;;;;;;5013199;28;20501;-91
2021/04/20 01:53:51;;;;;;;140.25;57.50;;;3.30;99.90;;;;;;5013866;28;20466;-91
2021/04/20 01:56:20;;;;;;;142.63;59.55;;;3.30;99.90;;;;;;5007552;28;20097;-91
2021/04/20 01:58:48;;;;;;;157.93;61.58;;;3.30;99.90;;;;;;5014496;28;20065;-90
2021/04/20 02:01:20;;;;;;;157.15;62.42;;;3.20;99.90;;;;;;5014657;28;20125;-91
2021/04/20 02:03:48;;;;;;;140.80;57.55;;;3.20;99.90;;;;;;5014719;28;20075;-90
2021/04/20 02:06:15;;;;;;;149.43;57.95;;;3.10;99.90;;;;;;5008561;28;20145;-91
2021/04/20 02:08:46;;;;;;;146.98;58.47;;;3.10;99.90;;;;;;5011812;28;20085;-91
2021/04/20 02:11:15;;;;;;;163.18;62.55;;;3.00;99.90;;;;;;5013156;28;20056;-90
2021/04/20 02:13:45;;;;;;;171.32;65.75;;;3.00;99.90;;;;;;5013921;28;20132;-91
2021/04/20 02:16:14;;;;;;;166.60;63.60;;;3.00;99.90;;;;;;5016637;28;20141;-90
2021/04/20 02:18:48;;;;;;;154.60;61.72;;;3.00;99.90;;;;;;5017069;28;20447;-90
2021/04/20 02:21:18;;;;;;;161.02;62.28;;;2.90;99.90;;;;;;5033951;28;20034;-91
2021/04/20 02:23:50;;;;;;;194.13;68.80;;;2.80;99.90;;;;;;5033082;28;20054;-91
2021/04/20 02:26:23;;;;;;;180.65;68.22;;;2.80;99.90;;;;;;5024672;28;20230;-92
2021/04/20 02:28:50;;;;;;;173.90;65.85;;;2.90;99.90;;;;;;5021837;28;20106;-91
2021/04/20 02:31:16;;;;;;;174.00;66.50;;;2.80;99.90;;;;;;5012690;28;20498;-91
2021/04/20 02:33:43;;;;;;;183.38;66.50;;;2.70;99.90;;;;;;5013959;28;20057;-91
2021/04/20 02:36:10;;;;;;;166.65;63.55;;;2.70;99.90;;;;;;5009994;28;20054;-89
2021/04/20 02:38:36;;;;;;;180.05;65.35;;;2.60;99.90;;;;;;4993484;28;20042;-91
2021/04/20 02:41:06;;;;;;;166.50;62.08;;;2.60;99.90;;;;;;5014734;28;20455;-90
2021/04/20 02:43:33;;;;;;;143.55;58.00;;;2.50;99.90;;;;;;5016623;28;20374;-90
2021/04/20 02:46:03;;;;;;;130.00;56.85;;;2.40;99.90;;;;;;5017005;28;20057;-92
2021/04/20 02:48:30;;;;;;;155.15;58.20;;;2.30;99.90;;;;;;5021684;28;20056;-92
2021/04/20 02:50:57;;;;;;;140.93;57.53;;;2.20;99.90;;;;;;5027148;28;20042;-91
2021/04/20 02:53:26;;;;;;;168.38;61.72;;;2.20;99.90;;;;;;5022912;28;20066;-92
2021/04/20 02:55:55;;;;;;;152.27;59.97;;;2.20;99.90;;;;;;5020131;28;20084;-90
2021/04/20 02:58:26;;;;;;;159.30;58.92;;;2.20;99.90;;;;;;5019052;28;20077;-89
2021/04/20 03:01:20;;;;;;;147.88;57.20;;;2.10;99.90;;;;;;5018729;28;20081;-90
2021/04/20 03:03:49;;;;;;;166.95;60.15;;;2.10;99.90;;;;;;5014619;28;20042;-89
2021/04/20 03:06:16;;;;;;;320.90;76.55;;;2.00;99.90;;;;;;5001912;28;20466;-91
2021/04/20 03:08:47;;;;;;;282.30;76.35;;;2.00;99.90;;;;;;5016975;28;20469;-92
2021/04/20 03:11:16;;;;;;;377.27;86.07;;;2.00;99.90;;;;;;5019264;28;20443;-91
2021/04/20 03:13:44;;;;;;;299.35;82.10;;;2.10;99.90;;;;;;5015689;28;20125;-91
2021/04/20 03:16:25;;;;;;;278.35;79.22;;;2.20;99.90;;;;;;5017183;28;20041;-90
2021/04/20 03:18:55;;;;;;;252.07;79.95;;;2.20;99.90;;;;;;5017621;28;20123;-90
2021/04/20 03:21:22;;;;;;;238.43;77.70;;;2.30;99.90;;;;;;5014601;28;20050;-90
2021/04/20 03:23:54;;;;;;;282.88;75.45;;;2.20;99.90;;;;;;5016330;28;20333;-90
2021/04/20 03:26:23;;;;;;;227.40;71.45;;;2.20;99.90;;;;;;5021287;28;20042;-92
2021/04/20 03:28:58;;;;;;;237.90;69.93;;;2.20;99.90;;;;;;5015782;28;20153;-92
2021/04/20 03:31:28;;;;;;;256.92;71.95;;;2.20;99.90;;;;;;5017689;28;20060;-91
2021/04/20 03:34:14;;;;;;;345.77;75.50;;;2.10;99.90;;;;;;5013835;28;20092;-90
2021/04/20 03:36:48;;;;;;;181.70;66.18;;;2.10;99.90;;;;;;5016663;28;20129;-90
2021/04/20 03:39:19;;;;;;;300.52;73.93;;;2.10;99.90;;;;;;5017267;28;20185;-90
2021/04/20 03:42:10;;;;;;;217.40;66.75;;;2.20;99.90;;;;;;5017696;28;20391;-91
2021/04/20 03:44:55;;;;;;;251.02;69.80;;;2.20;99.90;;;;;;5015865;28;20144;-91
2021/04/20 03:47:25;;;;;;;413.52;79.82;;;2.20;99.90;;;;;;5016236;28;20127;-90
2021/04/20 03:49:56;;;;;;;258.42;67.47;;;2.20;99.90;;;;;;5012788;28;20057;-91
2021/04/20 03:52:31;;;;;;;285.67;75.47;;;2.30;99.90;;;;;;5017427;28;20049;-92
2021/04/20 03:54:59;;;;;;;427.45;87.72;;;2.30;99.90;;;;;;5017066;28;20114;-91
2021/04/20 03:57:35;;;;;;;241.43;76.00;;;2.40;99.90;;;;;;5021025;28;20073;-90
2021/04/20 04:00:09;;;;;;;384.92;79.90;;;2.40;99.90;;;;;;5027442;28;20129;-91
2021/04/20 04:02:38;;;;;;;291.58;77.45;;;2.30;99.90;;;;;;5026164;28;20416;-90
2021/04/20 04:05:09;;;;;;;272.48;75.90;;;2.30;99.90;;;;;;5027099;28;20361;-91
2021/04/20 04:07:37;;;;;;;269.70;72.78;;;2.20;99.90;;;;;;5022707;28;20072;-90
2021/04/20 04:10:05;;;;;;;242.48;75.47;;;2.10;99.90;;;;;;5024944;28;20068;-91
2021/04/20 04:12:35;;;;;;;219.23;71.80;;;2.10;99.90;;;;;;5023221;28;20054;-90
2021/04/20 04:15:07;;;;;;;190.15;68.90;;;2.10;99.90;;;;;;5028465;28;20061;-91
2021/04/20 04:17:36;;;;;;;211.98;67.63;;;2.10;99.90;;;;;;5015624;28;20129;-90
2021/04/20 04:20:05;;;;;;;254.80;68.97;;;2.00;99.90;;;;;;5025925;28;20050;-91
2021/04/20 04:22:37;;;;;;;150.23;60.90;;;2.00;99.90;;;;;;5030475;28;20041;-90
2021/04/20 04:25:06;;;;;;;169.15;65.63;;;1.90;99.90;;;;;;5030620;28;20053;-91
2021/04/20 04:27:42;;;;;;;599.42;84.88;;;1.90;99.90;;;;;;5019608;28;20081;-91
2021/04/20 04:30:10;;;;;;;831.67;100.50;;;1.90;99.90;;;;;;5025387;28;20480;-91
2021/04/20 04:32:41;;;;;;;888.72;112.85;;;1.90;99.90;;;;;;5022489;28;20061;-91
2021/04/20 04:35:08;;;;;;;483.15;88.00;;;1.80;99.90;;;;;;5013950;28;20047;-90
2021/04/20 04:37:36;;;;;;;586.55;85.75;;;1.80;99.90;;;;;;5014437;28;20049;-90
2021/04/20 04:40:04;;;;;;;468.13;81.05;;;1.70;99.90;;;;;;5016721;28;20083;-91
2021/04/20 04:42:33;;;;;;;221.45;68.50;;;1.70;99.90;;;;;;5016613;28;20133;-90
2021/04/20 04:45:02;;;;;;;214.60;68.32;;;1.70;99.90;;;;;;5015496;28;20089;-90
2021/04/20 04:47:29;;;;;;;208.43;69.13;;;1.70;99.90;;;;;;5015886;28;20053;-89
2021/04/20 04:50:04;;;;;;;356.10;75.63;;;1.70;99.90;;;;;;5011575;28;20053;-89
2021/04/20 04:52:31;;;;;;;691.03;92.40;;;1.70;99.90;;;;;;5009329;28;20102;-90
2021/04/20 04:55:01;;;;;;;514.13;80.25;;;1.80;99.90;;;;;;5022280;28;20092;-91
2021/04/20 04:57:30;;;;;;;319.58;73.00;;;1.70;99.90;;;;;;5006416;28;20421;-91
2021/04/20 05:00:05;;;;;;;390.92;78.35;;;1.70;99.90;;;;;;5015867;28;20046;-90
2021/04/20 05:02:34;;;;;;;163.63;65.30;;;1.80;99.90;;;;;;5016249;28;20435;-91
2021/04/20 05:05:10;;;;;;;188.90;70.80;;;1.80;99.90;;;;;;5014290;28;20141;-90
2021/04/20 05:07:37;;;;;;;221.65;76.05;;;1.80;99.90;;;;;;5017944;28;20344;-89
2021/04/20 05:10:07;;;;;;;356.30;85.18;;;1.90;99.90;;;;;;5016430;28;20054;-90
2021/04/20 05:12:34;;;;;;;228.77;78.82;;;2.00;99.90;;;;;;5008180;28;20096;-90
2021/04/20 05:15:15;;;;;;;194.80;75.57;;;2.10;99.90;;;;;;5012557;28;20117;-89
2021/04/20 05:17:42;;;;;;;570.22;92.53;;;2.10;99.90;;;;;;5007487;28;20046;-89
2021/04/20 05:20:18;;;;;;;352.23;79.65;;;2.10;99.90;;;;;;5014301;28;20129;-89
2021/04/20 05:22:49;;;;;;;209.50;74.50;;;2.00;99.90;;;;;;5013658;28;20149;-89
2021/04/20 05:25:18;;;;;;;393.65;80.53;;;2.00;99.90;;;;;;5016878;28;20050;-89
2021/04/20 05:27:52;;;;;;;342.50;83.88;;;2.10;99.90;;;;;;4997243;28;20120;-90
2021/04/20 05:30:19;;;;;;;861.85;106.20;;;2.10;99.90;;;;;;5013663;28;20088;-91
2021/04/20 05:32:49;;;;;;;323.60;90.20;;;2.10;99.90;;;;;;5018885;28;20045;-85
2021/04/20 05:35:16;;;;;;;208.88;79.60;;;2.10;99.90;;;;;;5010460;28;20050;-85
2021/04/20 05:37:43;;;;;;;202.52;79.38;;;2.10;99.90;;;;;;5012246;28;20522;-87
2021/04/20 05:40:14;;;;;;;203.80;79.65;;;2.30;99.90;;;;;;5011801;28;20081;-86
2021/04/20 05:42:42;;;;;;;152.80;61.50;;;2.40;99.90;;;;;;5011095;28;20088;-85
2021/04/20 05:45:10;;;;;;;178.50;78.95;;;2.60;99.90;;;;;;5004031;28;20323;-89
2021/04/20 05:47:42;;;;;;;199.80;79.10;;;2.80;99.90;;;;;;5011315;28;20053;-87
2021/04/20 05:50:13;;;;;;;158.55;58.65;;;3.10;99.90;;;;;;5007778;28;20120;-86
2021/04/20 05:52:39;;;;;;;197.32;73.70;;;3.30;99.90;;;;;;5026027;28;20057;-86
2021/04/20 05:55:09;;;;;;;165.00;71.47;;;3.30;99.90;;;;;;5009459;28;20405;-86
2021/04/20 05:57:36;;;;;;;134.18;65.00;;;3.30;99.90;;;;;;5012027;28;20100;-87
2021/04/20 06:00:05;;;;;;;122.70;62.50;;;3.40;99.90;;;;;;5003297;28;20179;-86
2021/04/20 06:02:34;;;;;;;155.52;68.47;;;3.70;99.90;;;;;;5011837;28;20084;-86
2021/04/20 06:05:17;;;;;;;124.05;61.63;;;3.80;99.90;;;;;;5011663;28;20126;-86
2021/04/20 06:07:52;;;;;;;119.03;59.47;;;4.00;99.90;;;;;;5004214;28;20042;-91
2021/04/20 06:10:18;;;;;;;107.70;56.55;;;4.00;99.90;;;;;;5010708;28;20069;-90
2021/04/20 06:12:46;;;;;;;105.55;56.25;;;4.10;99.90;;;;;;5011933;28;20101;-91
2021/04/20 06:15:15;;;;;;;109.88;57.90;;;4.00;99.90;;;;;;5012889;28;20432;-89
2021/04/20 06:17:46;;;;;;;99.07;54.33;;;4.10;99.90;;;;;;5005033;28;20073;-90
2021/04/20 06:20:15;;;;;;;100.13;56.13;;;4.30;99.90;;;;;;5010025;28;20049;-89
2021/04/20 06:22:45;;;;;;;97.40;54.75;;;4.50;99.90;;;;;;5014211;28;20061;-90
2021/04/20 06:25:18;;;;;;;89.13;50.70;;;4.60;99.90;;;;;;5016051;28;20073;-88
2021/04/20 06:27:47;;;;;;;69.57;44.05;;;4.80;99.90;;;;;;5012010;28;20053;-88
2021/04/20 06:30:15;;;;;;;69.50;45.70;;;5.00;99.90;;;;;;5024535;28;20114;-89
2021/04/20 06:32:44;;;;;;;75.85;44.97;;;5.20;99.90;;;;;;5020380;28;20054;-88
2021/04/20 06:35:13;;;;;;;67.30;39.85;;;5.40;99.90;;;;;;5014709;28;20046;-89
2021/04/20 06:37:43;;;;;;;48.17;32.60;;;5.90;99.90;;;;;;5013468;28;20106;-88
2021/04/20 06:40:15;;;;;;;42.83;30.35;;;6.20;99.90;;;;;;5011773;28;20108;-89
2021/04/20 06:42:52;;;;;;;42.65;28.13;;;6.50;99.90;;;;;;5011848;28;20131;-89
2021/04/20 06:45:42;;;;;;;35.00;26.85;;;7.00;99.90;;;;;;5011270;28;20129;-89
2021/04/20 06:48:36;;;;;;;34.90;25.95;;;7.40;99.90;;;;;;4999749;28;20081;-90
2021/04/20 06:51:16;;;;;;;34.35;25.38;;;7.80;99.90;;;;;;5011420;28;20463;-90
2021/04/20 06:53:57;;;;;;;34.22;25.55;;;8.10;99.90;;;;;;5011877;28;20113;-90
2021/04/20 06:56:42;;;;;;;33.85;25.10;;;8.30;99.90;;;;;;5006302;28;20050;-89
2021/04/20 06:59:34;;;;;;;33.42;23.48;;;8.70;99.90;;;;;;5012909;28;20145;-90
2021/04/20 07:02:21;;;;;;;36.08;24.17;;;9.00;99.90;;;;;;5013940;28;20148;-89
2021/04/20 07:04:56;;;;;;;30.13;22.98;;;9.20;99.90;;;;;;5012791;28;20054;-90
2021/04/20 07:07:37;;;;;;;28.95;21.55;;;9.50;99.90;;;;;;5005836;28;20125;-90
2021/04/20 07:10:19;;;;;;;31.58;23.75;;;10.00;99.90;;;;;;5011854;28;20092;-89
2021/04/20 07:12:48;;;;;;;29.75;21.73;;;10.30;99.90;;;;;;5012248;28;20070;-89
2021/04/20 07:15:21;;;;;;;31.02;23.17;;;10.60;99.90;;;;;;5012658;28;20053;-90
2021/04/20 07:18:12;;;;;;;31.58;22.52;;;11.00;99.90;;;;;;5010388;28;20081;-90
2021/04/20 07:20:59;;;;;;;30.17;22.63;;;11.10;99.90;;;;;;5012937;28;20050;-90
2021/04/20 07:24:00;;;;;;;26.52;21.20;;;11.20;99.90;;;;;;5013459;28;20137;-90
2021/04/20 07:26:41;;;;;;;27.63;20.95;;;11.50;99.90;;;;;;5007838;28;20487;-90
2021/04/20 07:29:35;;;;;;;28.27;21.85;;;12.00;99.90;;;;;;5014967;28;20558;-89
2021/04/20 07:32:43;;;;;;;29.52;21.73;;;12.70;99.90;;;;;;5015340;28;20133;-90
2021/04/20 07:35:24;;;;;;;30.60;21.75;;;12.80;99.90;;;;;;5034680;28;20118;-91
2021/04/20 07:37:56;;;;;;;26.95;19.48;;;12.80;98.50;;;;;;5015262;28;20130;-90
2021/04/20 07:40:32;;;;;;;23.90;18.83;;;12.90;99.40;;;;;;5016456;28;20552;-89
2021/04/20 07:43:21;;;;;;;21.17;17.15;;;13.50;94.60;;;;;;5001993;28;20065;-90
2021/04/20 07:46:05;;;;;;;23.52;18.83;;;13.80;93.20;;;;;;5010675;28;20395;-90
2021/04/20 07:49:03;;;;;;;23.52;18.25;;;14.10;90.80;;;;;;5014946;28;20116;-90
2021/04/20 08:07:22;;;;;;;24.90;19.77;;;14.90;88.80;;;;;;5013463;28;20045;-90
2021/04/20 09:07:02;;;;;;;;;;;;;;;;;;;;;
2021/04/20 09:10:53;;;;;;;;;;;;;;;;;;;;;
2021/04/20 09:14:20;;;;;;;13.95;12.40;;;19.10;54.60;;;;;;4919782;29;20055;-90
2021/04/20 09:21:28;;;;;;;10.65;9.57;;;19.40;55.10;;;;;;5034195;28;20362;-90
2021/04/20 09:35:32;;;;;;;8.43;7.55;;;19.80;50.60;;;;;;4971383;28;20041;-88
2021/04/20 09:38:02;;;;;;;6.25;5.18;;;19.50;49.30;;;;;;4974633;28;20446;-88
2021/04/20 09:40:30;;;;;;;8.02;7.20;;;19.10;49.00;;;;;;5018731;28;20052;-90
2021/04/20 09:43:17;;;;;;;7.07;6.03;;;19.50;50.70;;;;;;5037400;28;20076;-87
2021/04/20 09:45:51;;;;;;;7.32;6.20;;;19.70;50.20;;;;;;5018905;28;20064;-88
2021/04/20 09:48:30;;;;;;;7.53;6.68;;;20.90;46.00;;;;;;5014942;28;20049;-88
2021/04/20 09:51:15;;;;;;;9.50;8.27;;;19.90;48.10;;;;;;5030176;28;20056;-88
2021/04/20 09:53:52;;;;;;;9.07;8.18;;;19.10;49.20;;;;;;5028830;28;20116;-87
2021/04/20 09:56:33;;;;;;;8.30;7.40;;;19.20;50.00;;;;;;5023090;28;20405;-88
2021/04/20 09:59:05;;;;;;;9.30;7.50;;;20.00;52.80;;;;;;5014948;28;20093;-89
2021/04/20 10:01:36;;;;;;;10.15;7.40;;;20.00;53.30;;;;;;5016067;28;20053;-88
2021/04/20 10:04:06;;;;;;;9.85;8.73;;;20.20;52.00;;;;;;5024862;28;20046;-88
2021/04/20 10:06:51;;;;;;;8.50;7.60;;;19.80;52.20;;;;;;5019109;28;20053;-88
2021/04/20 10:09:44;;;;;;;8.57;7.63;;;21.10;47.90;;;;;;5031545;28;20046;-89
2021/04/20 10:12:29;;;;;;;;;;;22.20;44.10;;;;;;5016169;28;20053;-88
2021/04/20 10:15:04;;;;;;;9.07;8.18;;;23.00;43.00;;;;;;5033750;28;19932;-89
2021/04/20 10:18:01;;;;;;;9.13;7.75;;;23.30;41.70;;;;;;5001209;28;20126;-88
2021/04/20 10:21:09;;;;;;;9.27;8.35;;;22.10;43.30;;;;;;4994190;28;20112;-87
2021/04/20 10:24:01;;;;;;;9.75;7.97;;;20.50;46.30;;;;;;5033642;28;20065;-88
2021/04/20 10:26:48;;;;;;;8.70;7.70;;;19.40;48.00;;;;;;5015772;28;20059;-89
2021/04/20 10:29:40;;;;;;;9.65;7.93;;;19.80;49.50;;;;;;5032281;28;20286;-91
2021/04/20 10:32:09;;;;;;;8.65;7.75;;;20.50;46.50;;;;;;5033103;28;20378;-89
2021/04/20 10:34:43;;;;;;;7.50;6.80;;;21.00;49.10;;;;;;5015563;28;20355;-90
2021/04/20 10:37:11;;;;;;;7.55;6.85;;;22.30;46.80;;;;;;5016806;28;20053;-89
2021/04/20 10:39:43;;;;;;;8.38;7.32;;;23.30;45.50;;;;;;5040826;28;20502;-89
2021/04/20 10:42:11;;;;;;;8.30;7.20;;;23.60;44.70;;;;;;5015312;28;20115;-89
2021/04/20 10:44:38;;;;;;;9.27;7.35;;;22.70;43.90;;;;;;5016989;28;20085;-88
2021/04/20 10:47:07;;;;;;;8.82;7.35;;;21.20;46.80;;;;;;5033637;28;20057;-89
2021/04/20 10:49:34;;;;;;;9.57;7.43;;;20.90;47.20;;;;;;5033085;28;20042;-89
2021/04/20 10:52:08;;;;;;;9.25;7.68;;;20.20;49.80;;;;;;5013961;28;20060;-88
2021/04/20 10:54:41;;;;;;;8.15;7.30;;;20.00;50.70;;;;;;5034467;28;20117;-87
2021/04/20 10:57:11;;;;;;;9.02;7.72;;;20.10;49.90;;;;;;5011008;28;20181;-89
2021/04/20 10:59:40;;;;;;;10.77;8.07;;;19.70;49.70;;;;;;5019773;28;20050;-89
2021/04/20 11:02:21;;;;;;;9.32;7.90;;;19.00;51.40;;;;;;5035318;28;20363;-89
2021/04/20 11:04:51;;;;;;;10.68;8.02;;;18.70;50.70;;;;;;5017528;28;20060;-89
2021/04/20 11:07:26;;;;;;;8.10;7.22;;;18.60;50.20;;;;;;5016247;28;20126;-86
2021/04/20 11:10:11;;;;;;;7.20;6.50;;;18.40;53.10;;;;;;5014264;28;20049;-89
2021/04/20 11:12:46;;;;;;;8.38;7.38;;;19.30;49.50;;;;;;5003721;28;20049;-87
2021/04/20 11:15:19;;;;;;;8.80;7.63;;;18.70;49.40;;;;;;5015883;28;20049;-87
2021/04/20 11:17:49;;;;;;;9.30;7.00;;;18.00;51.50;;;;;;5027676;28;20145;-87
2021/04/20 11:20:35;;;;;;;8.05;7.22;;;18.00;53.40;;;;;;5018164;28;20045;-88
2021/04/20 11:23:23;;;;;;;9.63;6.38;;;18.50;51.70;;;;;;5007109;28;20505;-88
2021/04/20 11:25:53;;;;;;;6.90;6.20;;;20.40;53.20;;;;;;5014177;28;20088;-88
2021/04/20 11:28:41;;;;;;;8.35;5.93;;;21.80;46.30;;;;;;5035019;28;20122;-89
2021/04/20 11:31:18;;;;;;;6.60;5.85;;;23.40;42.50;;;;;;5014541;28;20057;-88
2021/04/20 11:33:50;;;;;;;8.15;6.25;;;22.00;43.00;;;;;;5014732;28;20046;-88
2021/04/20 11:36:19;;;;;;;;;;;20.90;46.50;;;;;;5043735;28;20050;-86
2021/04/20 11:38:50;;;;;;;7.35;6.00;;;20.10;47.60;;;;;;5032210;28;19921;-90
2021/04/20 11:41:23;;;;;;;7.15;6.32;;;19.70;47.30;;;;;;5033193;28;20354;-90
2021/04/20 11:44:04;;;;;;;8.15;6.45;;;19.90;49.00;;;;;;5029368;28;20125;-88
2021/04/20 11:46:32;;;;;;;6.53;5.72;;;21.50;50.50;;;;;;5019457;28;20107;-90
2021/04/20 11:49:30;;;;;;;7.20;6.50;;;22.40;44.70;;;;;;5037762;28;20046;-90
2021/04/20 11:51:59;;;;;;;6.57;5.93;;;23.10;44.70;;;;;;4987934;28;20758;-88
2021/04/20 11:54:30;;;;;;;6.90;6.20;;;24.10;43.30;;;;;;5022266;28;20041;-87
2021/04/20 11:57:00;;;;;;;6.32;5.65;;;24.50;41.30;;;;;;5013411;28;20045;-88
2021/04/20 11:59:27;;;;;;;6.22;5.63;;;26.10;40.10;;;;;;5015262;28;20085;-87
2021/04/20 12:01:54;;;;;;;6.43;5.80;;;27.00;36.10;;;;;;5028632;28;20072;-86
2021/04/20 12:04:38;;;;;;;6.38;5.20;;;27.60;36.20;;;;;;5012613;28;20187;-86
2021/04/20 12:07:07;;;;;;;6.65;5.95;;;27.90;31.90;;;;;;5027310;28;20073;-87
2021/04/20 12:09:39;;;;;;;7.32;6.60;;;25.70;36.40;;;;;;5034988;28;20046;-85
2021/04/20 12:12:10;;;;;;;;;;;23.10;38.60;;;;;;5035543;28;20045;-87
2021/04/20 12:15:00;;;;;;;9.20;7.60;;;22.10;41.20;;;;;;5036087;28;19979;-87
2021/04/20 12:17:30;;;;;;;9.65;8.23;;;21.30;43.70;;;;;;5019299;28;20105;-86
2021/04/20 12:20:02;;;;;;;9.32;7.32;;;20.00;46.60;;;;;;5047087;28;20105;-86
2021/04/20 12:22:49;;;;;;;9.13;7.10;;;19.00;48.10;;;;;;5035917;28;20041;-89
2021/04/20 12:25:16;;;;;;;8.75;7.47;;;18.20;51.20;;;;;;5010464;28;20402;-86
2021/04/20 12:27:44;;;;;;;11.55;8.90;;;17.20;53.10;;;;;;5032624;28;20045;-86
2021/04/20 12:30:14;;;;;;;11.43;8.90;;;16.70;54.40;;;;;;5019424;28;20045;-87
2021/04/20 12:32:42;;;;;;;9.60;8.10;;;16.50;55.20;;;;;;5037266;28;20129;-85
2021/04/20 12:35:09;;;;;;;13.07;7.28;;;16.80;54.30;;;;;;5033085;28;20041;-85
2021/04/20 12:37:37;;;;;;;11.23;8.63;;;18.10;53.20;;;;;;5026642;28;20103;-86
2021/04/20 12:40:07;;;;;;;9.55;7.43;;;19.10;48.40;;;;;;5034052;28;20049;-86
2021/04/20 12:42:38;;;;;;;8.30;6.97;;;19.90;50.60;;;;;;5013023;28;20061;-86
2021/04/20 12:45:24;;;;;;;9.05;6.80;;;22.00;46.20;;;;;;5022143;28;20074;-88
2021/04/20 12:47:57;;;;;;;7.78;6.97;;;23.10;40.30;;;;;;5031743;28;20555;-86
2021/04/20 12:50:31;;;;;;;8.13;7.32;;;23.40;39.20;;;;;;5012052;28;20378;-88
2021/04/20 12:53:04;;;;;;;7.68;6.57;;;23.30;40.60;;;;;;5033339;28;20085;-89
2021/04/20 12:55:35;;;;;;;9.07;6.88;;;24.40;37.60;;;;;;5024196;28;20517;-87
2021/04/20 12:58:07;;;;;;;8.20;7.40;;;25.50;35.90;;;;;;5027827;28;20137;-87
2021/04/20 13:00:35;;;;;;;7.80;6.82;;;25.40;35.40;;;;;;5022956;28;20370;-86
2021/04/20 13:03:03;;;;;;;8.80;7.57;;;24.80;36.60;;;;;;5031874;28;20444;-87
2021/04/20 13:05:37;;;;;;;8.68;7.72;;;24.80;35.70;;;;;;5017387;28;20045;-86
2021/04/20 13:08:05;;;;;;;8.02;7.25;;;23.90;37.90;;;;;;5016622;28;20094;-86
2021/04/20 13:10:33;;;;;;;7.70;6.90;;;23.60;37.80;;;;;;5016687;28;20111;-86
2021/04/20 13:13:03;;;;;;;8.50;7.60;;;22.60;38.70;;;;;;5009777;28;20884;-86
2021/04/20 13:15:33;;;;;;;8.63;7.10;;;21.00;41.30;;;;;;5032338;28;20114;-86
2021/04/20 13:18:03;;;;;;;8.05;7.15;;;20.20;43.70;;;;;;5034097;28;20057;-87
2021/04/20 13:20:33;;;;;;;8.82;7.03;;;21.10;45.60;;;;;;5035280;28;20087;-86
2021/04/20 13:23:21;;;;;;;10.35;6.68;;;22.90;40.50;;;;;;5038098;28;20076;-86
2021/04/20 13:26:14;;;;;;;8.02;6.78;;;23.30;37.30;;;;;;5032868;28;20057;-86
2021/04/20 13:28:45;;;;;;;7.88;6.95;;;23.10;39.90;;;;;;5032450;28;20045;-88
2021/04/20 13:31:20;;;;;;;9.60;7.82;;;23.20;38.50;;;;;;5028879;28;20121;-87
2021/04/20 13:33:51;;;;;;;8.57;6.93;;;21.40;40.20;;;;;;5000712;28;20056;-85
2021/04/20 13:36:21;;;;;;;8.27;6.88;;;19.60;44.10;;;;;;5015181;28;20529;-85
2021/04/20 13:39:00;;;;;;;10.05;7.22;;;18.70;45.70;;;;;;5032847;28;20138;-87
2021/04/20 13:41:30;;;;;;;10.45;7.45;;;19.60;46.60;;;;;;4999178;28;20046;-86
2021/04/20 13:43:59;;;;;;;7.53;6.60;;;21.20;43.10;;;;;;5025568;28;20057;-87
2021/04/20 13:46:46;;;;;;;7.63;6.10;;;23.00;40.00;;;;;;5016511;28;20152;-85
2021/04/20 13:49:13;;;;;;;9.60;6.15;;;24.60;37.70;;;;;;5035718;28;20076;-86
2021/04/20 13:51:47;;;;;;;8.18;6.07;;;25.90;34.90;;;;;;5013346;28;20095;-88
2021/04/20 13:54:16;;;;;;;6.50;5.80;;;26.80;34.20;;;;;;5023914;28;20392;-89
2021/04/20 13:56:44;;;;;;;6.68;5.60;;;27.50;32.10;;;;;;5013291;28;20374;-87
2021/04/20 13:59:14;;;;;;;8.40;6.05;;;28.40;30.00;;;;;;5026191;28;20063;-87
2021/04/20 14:01:44;;;;;;;8.88;6.65;;;27.50;33.40;;;;;;5014994;28;20129;-86
2021/04/20 14:04:33;;;;;;;7.60;6.35;;;26.40;34.80;;;;;;5015741;28;20123;-88
2021/04/20 14:07:15;;;;;;;10.43;7.13;;;25.60;36.60;;;;;;5015039;28;20107;-88
2021/04/20 14:09:52;;;;;;;7.90;6.47;;;25.10;36.40;;;;;;5016156;28;20045;-87
2021/04/20 14:12:47;;;;;;;8.45;7.22;;;24.70;37.00;;;;;;5014453;28;20069;-88
2021/04/20 14:15:16;;;;;;;7.28;6.50;;;23.90;38.40;;;;;;5013756;28;20091;-88
2021/04/20 14:17:53;;;;;;;7.43;6.60;;;23.10;39.80;;;;;;5007781;28;20049;-88
2021/04/20 14:20:25;;;;;;;10.30;7.40;;;22.10;41.00;;;;;;5013150;28;20077;-87
2021/04/20 14:22:56;;;;;;;9.02;6.90;;;20.70;43.00;;;;;;5016272;28;20413;-88
2021/04/20 14:25:24;;;;;;;9.45;7.45;;;19.80;45.40;;;;;;5015935;28;20045;-87
2021/04/20 14:27:54;;;;;;;7.75;6.15;;;19.40;46.80;;;;;;5032670;28;20100;-87
2021/04/20 14:30:24;;;;;;;7.95;7.15;;;19.00;48.00;;;;;;5031811;28;20429;-87
2021/04/20 14:32:53;;;;;;;10.10;6.25;;;18.50;47.90;;;;;;5029645;28;20107;-87
2021/04/20 14:35:30;;;;;;;8.32;6.75;;;18.20;49.10;;;;;;5015624;28;20386;-87
2021/04/20 14:38:02;;;;;;;6.95;5.68;;;19.20;48.90;;;;;;5035336;28;20042;-87
2021/04/20 14:40:29;;;;;;;8.00;6.60;;;20.50;45.30;;;;;;5036241;28;20061;-88